sensor_id;sensor_type;location;lat;lon;timestamp;pressure;altitude;pressure_sealevel;temperature;humidity
45275;BME280;31019;43.780;25.948;2023-02-22T00:00:53;100841.94;;;9.75;100.00
45275;BME280;31019;43.780;25.948;2023-02-22T00:03:25;100841.66;;;10.12;100.00
45275;BME280;31019;43.780;25.948;2023-02-22T00:05:54;100842.63;;;9.56;100.00
45275;BME280;31019;43.780;25.948;2023-02-22T00:08:24;100842.00;;;9.95;100.00
45275;BME280;31019;43.780;25.948;2023-02-22T00:10:54;100847.72;;;9.51;100.00
45275;BME280;31019;43.780;25.948;2023-02-22T00:13:23;100842.59;;;9.49;100.00
45275;BME280;31019;43.780;25.948;2023-02-22T00:15:49;100847.69;;;9.44;100.00
45275;BME280;31019;43.780;25.948;2023-02-22T00:18:17;100845.53;;;9.61;100.00
45275;BME280;31019;43.780;25.948;2023-02-22T00:20:44;100850.81;;;9.61;100.00
45275;BME280;31019;43.780;25.948;2023-02-22T00:23:13;100857.22;;;9.73;100.00
45275;BME280;31019;43.780;25.948;2023-02-22T00:25:40;100853.16;;;9.77;100.00
45275;BME280;31019;43.780;25.948;2023-02-22T00:28:07;100862.63;;;10.00;100.00
45275;BME280;31019;43.780;25.948;2023-02-22T00:30:35;100858.38;;;9.64;100.00
45275;BME280;31019;43.780;25.948;2023-02-22T00:33:02;100857.16;;;9.60;100.00
45275;BME280;31019;43.780;25.948;2023-02-22T00:35:30;100849.84;;;9.69;100.00
45275;BME280;31019;43.780;25.948;2023-02-22T00:37:58;100850.97;;;9.53;100.00
45275;BME280;31019;43.780;25.948;2023-02-22T00:40:29;100844.97;;;9.72;100.00
45275;BME280;31019;43.780;25.948;2023-02-22T00:42:56;100845.63;;;9.81;100.00
45275;BME280;31019;43.780;25.948;2023-02-22T00:45:25;100845.03;;;9.85;100.00
45275;BME280;31019;43.780;25.948;2023-02-22T00:47:53;100842.94;;;9.74;100.00
45275;BME280;31019;43.780;25.948;2023-02-22T00:50:22;100839.16;;;9.55;100.00
45275;BME280;31019;43.780;25.948;2023-02-22T00:52:49;100845.38;;;9.69;100.00
45275;BME280;31019;43.780;25.948;2023-02-22T00:55:19;100850.72;;;9.82;100.00
45275;BME280;31019;43.780;25.948;2023-02-22T00:57:46;100839.09;;;9.42;100.00
45275;BME280;31019;43.780;25.948;2023-02-22T01:00:17;100847.41;;;9.74;100.00
45275;BME280;31019;43.780;25.948;2023-02-22T01:02:45;100842.09;;;9.74;100.00
45275;BME280;31019;43.780;25.948;2023-02-22T01:05:17;100841.94;;;9.75;100.00
45275;BME280;31019;43.780;25.948;2023-02-22T01:07:44;100841.56;;;9.15;100.00
45275;BME280;31019;43.780;25.948;2023-02-22T01:10:12;100842.78;;;9.41;100.00
45275;BME280;31019;43.780;25.948;2023-02-22T01:12:39;100845.41;;;9.76;100.00
45275;BME280;31019;43.780;25.948;2023-02-22T01:15:08;100838.50;;;9.47;100.00
45275;BME280;31019;43.780;25.948;2023-02-22T01:17:37;100845.09;;;9.57;100.00
45275;BME280;31019;43.780;25.948;2023-02-22T01:20:07;100845.84;;;9.45;100.00
45275;BME280;31019;43.780;25.948;2023-02-22T01:22:39;100849.72;;;9.42;100.00
45275;BME280;31019;43.780;25.948;2023-02-22T01:25:07;100846.66;;;9.45;100.00
45275;BME280;31019;43.780;25.948;2023-02-22T01:27:34;100848.72;;;9.15;100.00
45275;BME280;31019;43.780;25.948;2023-02-22T01:30:03;100851.16;;;9.16;100.00
45275;BME280;31019;43.780;25.948;2023-02-22T01:32:33;100838.88;;;9.09;100.00
45275;BME280;31019;43.780;25.948;2023-02-22T01:35:00;100838.06;;;9.43;100.00
45275;BME280;31019;43.780;25.948;2023-02-22T01:37:29;100843.00;;;9.46;100.00
45275;BME280;31019;43.780;25.948;2023-02-22T01:39:57;100836.06;;;9.45;100.00
45275;BME280;31019;43.780;25.948;2023-02-22T01:42:24;100840.63;;;9.64;100.00
45275;BME280;31019;43.780;25.948;2023-02-22T01:47:52;100833.41;;;9.86;100.00
45275;BME280;31019;43.780;25.948;2023-02-22T01:50:20;100832.91;;;9.63;100.00
45275;BME280;31019;43.780;25.948;2023-02-22T01:52:47;100834.28;;;9.59;100.00
45275;BME280;31019;43.780;25.948;2023-02-22T01:55:16;100840.97;;;9.48;100.00
45275;BME280;31019;43.780;25.948;2023-02-22T01:57:43;100841.22;;;9.53;100.00
45275;BME280;31019;43.780;25.948;2023-02-22T02:00:14;100839.34;;;9.47;100.00
45275;BME280;31019;43.780;25.948;2023-02-22T02:02:48;100837.63;;;9.33;100.00
45275;BME280;31019;43.780;25.948;2023-02-22T02:05:16;100842.25;;;9.24;100.00
45275;BME280;31019;43.780;25.948;2023-02-22T02:07:43;100838.53;;;9.18;100.00
45275;BME280;31019;43.780;25.948;2023-02-22T02:10:13;100844.91;;;9.24;100.00
45275;BME280;31019;43.780;25.948;2023-02-22T02:12:44;100842.69;;;9.28;100.00
45275;BME280;31019;43.780;25.948;2023-02-22T02:15:16;100843.56;;;9.07;100.00
45275;BME280;31019;43.780;25.948;2023-02-22T02:17:44;100846.97;;;9.01;100.00
45275;BME280;31019;43.780;25.948;2023-02-22T02:20:17;100846.09;;;8.93;100.00
45275;BME280;31019;43.780;25.948;2023-02-22T02:22:51;100838.13;;;8.87;100.00
45275;BME280;31019;43.780;25.948;2023-02-22T02:32:11;100850.50;;;9.08;100.00
45275;BME280;31019;43.780;25.948;2023-02-22T02:34:47;100844.41;;;8.86;100.00
45275;BME280;31019;43.780;25.948;2023-02-22T02:37:20;100847.88;;;8.65;100.00
45275;BME280;31019;43.780;25.948;2023-02-22T02:39:55;100840.69;;;8.80;100.00
45275;BME280;31019;43.780;25.948;2023-02-22T02:42:41;100846.91;;;8.66;100.00
45275;BME280;31019;43.780;25.948;2023-02-22T02:45:14;100843.66;;;8.70;100.00
45275;BME280;31019;43.780;25.948;2023-02-22T02:47:48;100844.06;;;8.95;100.00
45275;BME280;31019;43.780;25.948;2023-02-22T02:50:22;100848.28;;;8.62;100.00
45275;BME280;31019;43.780;25.948;2023-02-22T02:52:53;100853.75;;;8.39;100.00
45275;BME280;31019;43.780;25.948;2023-02-22T02:55:23;100856.69;;;8.65;100.00
45275;BME280;31019;43.780;25.948;2023-02-22T02:57:50;100849.22;;;8.76;100.00
45275;BME280;31019;43.780;25.948;2023-02-22T03:00:19;100865.81;;;8.63;100.00
45275;BME280;31019;43.780;25.948;2023-02-22T03:03:12;100862.63;;;8.53;100.00
45275;BME280;31019;43.780;25.948;2023-02-22T03:05:56;100863.53;;;8.60;100.00
45275;BME280;31019;43.780;25.948;2023-02-22T03:08:33;100865.66;;;8.49;100.00
45275;BME280;31019;43.780;25.948;2023-02-22T03:11:05;100869.88;;;8.44;100.00
45275;BME280;31019;43.780;25.948;2023-02-22T03:13:41;100878.84;;;8.28;100.00
45275;BME280;31019;43.780;25.948;2023-02-22T03:16:14;100881.34;;;8.15;100.00
45275;BME280;31019;43.780;25.948;2023-02-22T03:18:49;100878.69;;;8.30;100.00
45275;BME280;31019;43.780;25.948;2023-02-22T03:21:24;100874.50;;;7.17;100.00
45275;BME280;31019;43.780;25.948;2023-02-22T03:23:59;100885.81;;;7.25;100.00
45275;BME280;31019;43.780;25.948;2023-02-22T03:26:32;100884.69;;;7.57;100.00
45275;BME280;31019;43.780;25.948;2023-02-22T03:29:01;100880.28;;;7.35;100.00
45275;BME280;31019;43.780;25.948;2023-02-22T03:31:33;100875.84;;;6.98;100.00
45275;BME280;31019;43.780;25.948;2023-02-22T03:34:05;100884.06;;;6.80;100.00
45275;BME280;31019;43.780;25.948;2023-02-22T03:36:36;100887.63;;;6.41;100.00
45275;BME280;31019;43.780;25.948;2023-02-22T03:39:06;100885.53;;;6.59;100.00
45275;BME280;31019;43.780;25.948;2023-02-22T03:41:36;100899.09;;;6.56;100.00
45275;BME280;31019;43.780;25.948;2023-02-22T03:44:08;100892.69;;;6.28;100.00
45275;BME280;31019;43.780;25.948;2023-02-22T03:46:38;100896.63;;;6.55;100.00
45275;BME280;31019;43.780;25.948;2023-02-22T03:49:10;100889.31;;;6.88;100.00
45275;BME280;31019;43.780;25.948;2023-02-22T03:51:40;100889.19;;;7.19;100.00
45275;BME280;31019;43.780;25.948;2023-02-22T03:54:07;100894.78;;;7.39;100.00
45275;BME280;31019;43.780;25.948;2023-02-22T03:56:44;100892.25;;;6.70;100.00
45275;BME280;31019;43.780;25.948;2023-02-22T03:59:14;100882.69;;;6.69;100.00
45275;BME280;31019;43.780;25.948;2023-02-22T04:01:41;100894.00;;;7.16;100.00
45275;BME280;31019;43.780;25.948;2023-02-22T04:04:09;100894.00;;;7.53;100.00
45275;BME280;31019;43.780;25.948;2023-02-22T04:06:36;100892.78;;;7.26;100.00
45275;BME280;31019;43.780;25.948;2023-02-22T04:09:03;100892.38;;;7.15;100.00
45275;BME280;31019;43.780;25.948;2023-02-22T04:11:30;100893.13;;;7.23;100.00
45275;BME280;31019;43.780;25.948;2023-02-22T04:13:57;100884.59;;;7.36;100.00
45275;BME280;31019;43.780;25.948;2023-02-22T04:16:25;100899.81;;;7.78;100.00
45275;BME280;31019;43.780;25.948;2023-02-22T04:18:51;100897.00;;;7.50;100.00
45275;BME280;31019;43.780;25.948;2023-02-22T04:21:19;100896.25;;;7.71;100.00
45275;BME280;31019;43.780;25.948;2023-02-22T04:23:46;100901.53;;;7.71;100.00
45275;BME280;31019;43.780;25.948;2023-02-22T04:26:13;100894.81;;;7.54;100.00
45275;BME280;31019;43.780;25.948;2023-02-22T04:28:40;100902.72;;;7.39;100.00
45275;BME280;31019;43.780;25.948;2023-02-22T04:31:06;100899.72;;;7.42;100.00
45275;BME280;31019;43.780;25.948;2023-02-22T04:33:33;100895.34;;;7.49;100.00
45275;BME280;31019;43.780;25.948;2023-02-22T04:36:00;100898.53;;;7.74;100.00
45275;BME280;31019;43.780;25.948;2023-02-22T04:38:28;100900.06;;;7.84;100.00
45275;BME280;31019;43.780;25.948;2023-02-22T04:40:55;100910.19;;;7.80;100.00
45275;BME280;31019;43.780;25.948;2023-02-22T04:43:22;100902.28;;;7.80;100.00
45275;BME280;31019;43.780;25.948;2023-02-22T04:45:49;100901.09;;;7.83;100.00
45275;BME280;31019;43.780;25.948;2023-02-22T04:48:16;100900.91;;;7.69;100.00
45275;BME280;31019;43.780;25.948;2023-02-22T04:50:43;100905.09;;;7.64;100.00
45275;BME280;31019;43.780;25.948;2023-02-22T04:53:12;100902.91;;;7.52;100.00
45275;BME280;31019;43.780;25.948;2023-02-22T04:55:40;100903.16;;;7.28;100.00
45275;BME280;31019;43.780;25.948;2023-02-22T04:58:06;100912.72;;;7.29;100.00
45275;BME280;31019;43.780;25.948;2023-02-22T05:00:33;100903.72;;;7.23;100.00
45275;BME280;31019;43.780;25.948;2023-02-22T05:03:01;100901.44;;;6.97;100.00
45275;BME280;31019;43.780;25.948;2023-02-22T05:05:27;100905.78;;;6.67;100.00
45275;BME280;31019;43.780;25.948;2023-02-22T05:07:54;100914.81;;;6.50;100.00
45275;BME280;31019;43.780;25.948;2023-02-22T05:10:21;100911.78;;;6.30;100.00
45275;BME280;31019;43.780;25.948;2023-02-22T05:12:50;100912.16;;;6.96;100.00
45275;BME280;31019;43.780;25.948;2023-02-22T05:15:20;100916.38;;;6.59;100.00
45275;BME280;31019;43.780;25.948;2023-02-22T05:17:47;100918.91;;;6.52;100.00
45275;BME280;31019;43.780;25.948;2023-02-22T05:20:20;100925.50;;;6.79;100.00
45275;BME280;31019;43.780;25.948;2023-02-22T05:22:47;100913.31;;;7.16;100.00
45275;BME280;31019;43.780;25.948;2023-02-22T05:25:16;100920.41;;;7.68;100.00
45275;BME280;31019;43.780;25.948;2023-02-22T05:27:50;100917.19;;;7.43;100.00
45275;BME280;31019;43.780;25.948;2023-02-22T05:30:23;100923.25;;;7.96;100.00
45275;BME280;31019;43.780;25.948;2023-02-22T05:32:50;100921.72;;;7.72;100.00
45275;BME280;31019;43.780;25.948;2023-02-22T05:35:17;100925.34;;;7.71;100.00
45275;BME280;31019;43.780;25.948;2023-02-22T05:37:44;100925.69;;;7.68;100.00
45275;BME280;31019;43.780;25.948;2023-02-22T05:40:11;100930.81;;;7.85;100.00
45275;BME280;31019;43.780;25.948;2023-02-22T05:42:39;100935.91;;;7.86;100.00
45275;BME280;31019;43.780;25.948;2023-02-22T05:45:10;100940.72;;;7.53;100.00
45275;BME280;31019;43.780;25.948;2023-02-22T05:47:37;100945.03;;;8.13;100.00
45275;BME280;31019;43.780;25.948;2023-02-22T05:50:05;100939.63;;;8.36;100.00
45275;BME280;31019;43.780;25.948;2023-02-22T05:52:32;100950.75;;;8.46;100.00
45275;BME280;31019;43.780;25.948;2023-02-22T05:54:59;100958.31;;;8.49;100.00
45275;BME280;31019;43.780;25.948;2023-02-22T05:57:26;100954.81;;;8.64;100.00
45275;BME280;31019;43.780;25.948;2023-02-22T05:59:52;100948.28;;;8.81;100.00
45275;BME280;31019;43.780;25.948;2023-02-22T06:02:20;100948.16;;;8.89;100.00
45275;BME280;31019;43.780;25.948;2023-02-22T06:04:47;100957.88;;;9.04;100.00
45275;BME280;31019;43.780;25.948;2023-02-22T06:07:14;100958.59;;;9.19;100.00
45275;BME280;31019;43.780;25.948;2023-02-22T06:09:41;100964.97;;;9.25;100.00
45275;BME280;31019;43.780;25.948;2023-02-22T06:12:08;100974.31;;;9.42;100.00
45275;BME280;31019;43.780;25.948;2023-02-22T06:14:35;100969.53;;;9.59;100.00
45275;BME280;31019;43.780;25.948;2023-02-22T06:17:02;100968.44;;;9.75;100.00
45275;BME280;31019;43.780;25.948;2023-02-22T06:19:32;100973.63;;;9.90;100.00
45275;BME280;31019;43.780;25.948;2023-02-22T06:21:59;100981.00;;;9.94;100.00
45275;BME280;31019;43.780;25.948;2023-02-22T06:24:27;100977.59;;;10.07;100.00
45275;BME280;31019;43.780;25.948;2023-02-22T06:26:54;100984.75;;;10.13;100.00
45275;BME280;31019;43.780;25.948;2023-02-22T06:29:21;100980.81;;;10.30;100.00
45275;BME280;31019;43.780;25.948;2023-02-22T06:31:48;100980.47;;;10.47;100.00
45275;BME280;31019;43.780;25.948;2023-02-22T06:34:15;100987.28;;;10.69;100.00
45275;BME280;31019;43.780;25.948;2023-02-22T06:36:43;100999.56;;;10.77;100.00
45275;BME280;31019;43.780;25.948;2023-02-22T06:39:12;100991.00;;;10.95;100.00
45275;BME280;31019;43.780;25.948;2023-02-22T06:41:41;101000.66;;;10.96;100.00
45275;BME280;31019;43.780;25.948;2023-02-22T06:44:08;101000.56;;;10.69;100.00
45275;BME280;31019;43.780;25.948;2023-02-22T06:46:36;100993.91;;;11.00;100.00
45275;BME280;31019;43.780;25.948;2023-02-22T06:49:03;100990.66;;;11.11;100.00
45275;BME280;31019;43.780;25.948;2023-02-22T06:51:34;100997.19;;;11.09;100.00
45275;BME280;31019;43.780;25.948;2023-02-22T06:54:03;101005.16;;;10.95;100.00
45275;BME280;31019;43.780;25.948;2023-02-22T06:56:30;101012.09;;;11.10;100.00
45275;BME280;31019;43.780;25.948;2023-02-22T06:58:57;101007.03;;;11.55;100.00
45275;BME280;31019;43.780;25.948;2023-02-22T07:01:26;101006.41;;;11.73;100.00
45275;BME280;31019;43.780;25.948;2023-02-22T07:03:53;100999.22;;;12.06;100.00
45275;BME280;31019;43.780;25.948;2023-02-22T07:06:19;101005.19;;;11.55;100.00
45275;BME280;31019;43.780;25.948;2023-02-22T07:08:47;100999.88;;;11.35;100.00
45275;BME280;31019;43.780;25.948;2023-02-22T07:11:16;100995.75;;;11.06;100.00
45275;BME280;31019;43.780;25.948;2023-02-22T07:13:43;100989.44;;;11.27;100.00
45275;BME280;31019;43.780;25.948;2023-02-22T07:16:10;100992.91;;;11.81;100.00
45275;BME280;31019;43.780;25.948;2023-02-22T07:18:36;100999.66;;;11.90;100.00
45275;BME280;31019;43.780;25.948;2023-02-22T07:21:04;100993.94;;;11.86;100.00
45275;BME280;31019;43.780;25.948;2023-02-22T07:23:32;100993.13;;;11.59;100.00
45275;BME280;31019;43.780;25.948;2023-02-22T07:25:59;100999.03;;;11.55;100.00
45275;BME280;31019;43.780;25.948;2023-02-22T07:28:28;101006.22;;;11.48;100.00
45275;BME280;31019;43.780;25.948;2023-02-22T07:30:54;101004.97;;;11.70;100.00
45275;BME280;31019;43.780;25.948;2023-02-22T07:33:21;101000.09;;;11.54;100.00
45275;BME280;31019;43.780;25.948;2023-02-22T07:35:49;101008.66;;;11.76;100.00
45275;BME280;31019;43.780;25.948;2023-02-22T07:38:18;101005.38;;;11.40;100.00
45275;BME280;31019;43.780;25.948;2023-02-22T07:40:45;100999.69;;;12.48;100.00
45275;BME280;31019;43.780;25.948;2023-02-22T07:43:14;101001.44;;;12.09;100.00
45275;BME280;31019;43.780;25.948;2023-02-22T07:45:44;101002.75;;;11.47;100.00
45275;BME280;31019;43.780;25.948;2023-02-22T07:48:12;100998.41;;;12.57;100.00
45275;BME280;31019;43.780;25.948;2023-02-22T07:50:39;101004.56;;;11.46;100.00
45275;BME280;31019;43.780;25.948;2023-02-22T07:53:09;100999.72;;;12.42;100.00
45275;BME280;31019;43.780;25.948;2023-02-22T07:55:37;101001.22;;;12.24;100.00
45275;BME280;31019;43.780;25.948;2023-02-22T07:58:06;101006.50;;;12.37;100.00
45275;BME280;31019;43.780;25.948;2023-02-22T08:00:35;101017.59;;;13.43;100.00
45275;BME280;31019;43.780;25.948;2023-02-22T08:03:06;101004.22;;;13.18;100.00
45275;BME280;31019;43.780;25.948;2023-02-22T08:05:36;101012.03;;;13.13;100.00
45275;BME280;31019;43.780;25.948;2023-02-22T08:08:04;101008.50;;;12.49;100.00
45275;BME280;31019;43.780;25.948;2023-02-22T08:10:32;101014.19;;;12.07;100.00
45275;BME280;31019;43.780;25.948;2023-02-22T08:12:59;101003.69;;;12.12;100.00
45275;BME280;31019;43.780;25.948;2023-02-22T08:15:29;101008.28;;;13.52;100.00
45275;BME280;31019;43.780;25.948;2023-02-22T08:17:56;101001.00;;;12.77;100.00
45275;BME280;31019;43.780;25.948;2023-02-22T08:20:25;101004.59;;;13.21;100.00
45275;BME280;31019;43.780;25.948;2023-02-22T08:22:52;101001.94;;;13.53;100.00
45275;BME280;31019;43.780;25.948;2023-02-22T08:25:20;100997.44;;;12.90;100.00
45275;BME280;31019;43.780;25.948;2023-02-22T08:27:47;100997.88;;;12.87;100.00
45275;BME280;31019;43.780;25.948;2023-02-22T08:30:16;100998.81;;;12.99;100.00
45275;BME280;31019;43.780;25.948;2023-02-22T08:32:44;101001.34;;;13.51;100.00
45275;BME280;31019;43.780;25.948;2023-02-22T08:35:11;101005.09;;;13.12;100.00
45275;BME280;31019;43.780;25.948;2023-02-22T08:37:42;101002.63;;;12.78;100.00
45275;BME280;31019;43.780;25.948;2023-02-22T08:40:10;101007.09;;;13.48;100.00
45275;BME280;31019;43.780;25.948;2023-02-22T08:42:37;101004.41;;;13.98;100.00
45275;BME280;31019;43.780;25.948;2023-02-22T08:45:05;100999.44;;;14.02;100.00
45275;BME280;31019;43.780;25.948;2023-02-22T08:47:32;101001.41;;;14.06;99.89
45275;BME280;31019;43.780;25.948;2023-02-22T08:49:59;101009.41;;;13.88;97.72
45275;BME280;31019;43.780;25.948;2023-02-22T08:52:25;100997.31;;;14.77;97.70
45275;BME280;31019;43.780;25.948;2023-02-22T08:54:54;100997.38;;;13.79;100.00
45275;BME280;31019;43.780;25.948;2023-02-22T08:57:21;100990.16;;;13.36;100.00
45275;BME280;31019;43.780;25.948;2023-02-22T08:59:48;100992.72;;;14.48;100.00
45275;BME280;31019;43.780;25.948;2023-02-22T09:02:18;100993.66;;;13.80;100.00
45275;BME280;31019;43.780;25.948;2023-02-22T09:04:46;100991.94;;;13.92;100.00
45275;BME280;31019;43.780;25.948;2023-02-22T09:07:13;100993.78;;;13.48;100.00
45275;BME280;31019;43.780;25.948;2023-02-22T09:09:41;100993.31;;;14.13;100.00
45275;BME280;31019;43.780;25.948;2023-02-22T09:12:09;100990.47;;;15.23;96.75
45275;BME280;31019;43.780;25.948;2023-02-22T09:14:36;100992.22;;;14.87;97.43
45275;BME280;31019;43.780;25.948;2023-02-22T09:17:03;100993.88;;;16.53;93.79
45275;BME280;31019;43.780;25.948;2023-02-22T09:19:29;100984.94;;;15.95;93.41
45275;BME280;31019;43.780;25.948;2023-02-22T09:21:57;100985.56;;;16.38;91.42
45275;BME280;31019;43.780;25.948;2023-02-22T09:24:25;100985.16;;;14.63;91.10
45275;BME280;31019;43.780;25.948;2023-02-22T09:26:52;100992.19;;;15.18;93.75
45275;BME280;31019;43.780;25.948;2023-02-22T09:29:21;100993.16;;;17.49;89.12
45275;BME280;31019;43.780;25.948;2023-02-22T09:31:50;100990.47;;;17.32;87.11
45275;BME280;31019;43.780;25.948;2023-02-22T09:34:18;100992.81;;;15.67;86.29
45275;BME280;31019;43.780;25.948;2023-02-22T09:36:47;100987.34;;;14.84;86.69
45275;BME280;31019;43.780;25.948;2023-02-22T09:39:15;100982.69;;;15.45;91.77
45275;BME280;31019;43.780;25.948;2023-02-22T09:41:48;100986.56;;;15.73;94.20
45275;BME280;31019;43.780;25.948;2023-02-22T09:44:23;100982.44;;;14.81;97.36
45275;BME280;31019;43.780;25.948;2023-02-22T09:46:52;100982.66;;;17.64;85.94
45275;BME280;31019;43.780;25.948;2023-02-22T09:49:22;100983.09;;;17.22;82.98
45275;BME280;31019;43.780;25.948;2023-02-22T09:51:56;100985.66;;;17.84;79.06
45275;BME280;31019;43.780;25.948;2023-02-22T09:54:29;100982.53;;;16.34;84.68
45275;BME280;31019;43.780;25.948;2023-02-22T09:57:02;100981.44;;;17.38;83.83
45275;BME280;31019;43.780;25.948;2023-02-22T09:59:35;100977.94;;;15.94;81.22
45275;BME280;31019;43.780;25.948;2023-02-22T10:02:17;100980.81;;;18.47;81.71
45275;BME280;31019;43.780;25.948;2023-02-22T10:04:48;100988.81;;;16.97;85.39
45275;BME280;31019;43.780;25.948;2023-02-22T10:07:23;100988.03;;;17.47;85.45
45275;BME280;31019;43.780;25.948;2023-02-22T10:09:53;100988.50;;;17.27;75.44
45275;BME280;31019;43.780;25.948;2023-02-22T10:12:28;100982.75;;;14.73;83.33
45275;BME280;31019;43.780;25.948;2023-02-22T10:15:28;100990.56;;;17.20;80.34
45275;BME280;31019;43.780;25.948;2023-02-22T10:18:12;100978.97;;;16.17;84.38
45275;BME280;31019;43.780;25.948;2023-02-22T10:20:51;100983.53;;;15.81;81.37
45275;BME280;31019;43.780;25.948;2023-02-22T10:23:27;100971.44;;;16.71;82.14
45275;BME280;31019;43.780;25.948;2023-02-22T10:26:03;100977.72;;;19.15;76.93
45275;BME280;31019;43.780;25.948;2023-02-22T10:28:38;100969.03;;;19.77;74.47
45275;BME280;31019;43.780;25.948;2023-02-22T10:31:13;100969.41;;;19.16;71.17
45275;BME280;31019;43.780;25.948;2023-02-22T10:33:47;100972.47;;;17.66;75.29
45275;BME280;31019;43.780;25.948;2023-02-22T10:36:20;100962.44;;;18.17;75.57
45275;BME280;31019;43.780;25.948;2023-02-22T10:38:50;100953.66;;;18.27;73.57
45275;BME280;31019;43.780;25.948;2023-02-22T10:41:25;100948.34;;;18.81;76.36
45275;BME280;31019;43.780;25.948;2023-02-22T10:43:53;100949.03;;;20.26;67.98
45275;BME280;31019;43.780;25.948;2023-02-22T10:46:22;100941.94;;;18.60;76.19
45275;BME280;31019;43.780;25.948;2023-02-22T10:48:51;100944.00;;;19.82;67.66
45275;BME280;31019;43.780;25.948;2023-02-22T10:51:20;100942.06;;;17.99;70.48
45275;BME280;31019;43.780;25.948;2023-02-22T10:53:57;100930.78;;;19.80;72.93
45275;BME280;31019;43.780;25.948;2023-02-22T10:56:26;100937.38;;;19.20;72.11
45275;BME280;31019;43.780;25.948;2023-02-22T10:58:55;100934.03;;;19.45;67.46
45275;BME280;31019;43.780;25.948;2023-02-22T11:01:34;100926.09;;;18.64;68.50
45275;BME280;31019;43.780;25.948;2023-02-22T11:04:06;100935.09;;;17.09;72.92
45275;BME280;31019;43.780;25.948;2023-02-22T11:06:37;100936.72;;;17.44;73.45
45275;BME280;31019;43.780;25.948;2023-02-22T11:09:07;100920.75;;;18.42;69.34
45275;BME280;31019;43.780;25.948;2023-02-22T11:11:36;100922.00;;;20.00;71.29
45275;BME280;31019;43.780;25.948;2023-02-22T11:14:04;100915.97;;;20.56;60.93
45275;BME280;31019;43.780;25.948;2023-02-22T11:16:34;100922.69;;;17.97;69.47
45275;BME280;31019;43.780;25.948;2023-02-22T11:19:16;100917.97;;;19.55;67.81
45275;BME280;31019;43.780;25.948;2023-02-22T11:21:45;100913.78;;;18.95;65.40
45275;BME280;31019;43.780;25.948;2023-02-22T11:24:13;100908.88;;;21.67;65.29
45275;BME280;31019;43.780;25.948;2023-02-22T11:26:42;100909.25;;;18.46;66.28
45275;BME280;31019;43.780;25.948;2023-02-22T11:29:18;100911.03;;;19.22;65.63
45275;BME280;31019;43.780;25.948;2023-02-22T11:31:47;100907.81;;;17.73;67.79
45275;BME280;31019;43.780;25.948;2023-02-22T11:34:28;100906.16;;;19.61;61.09
45275;BME280;31019;43.780;25.948;2023-02-22T11:36:56;100906.78;;;18.99;63.18
45275;BME280;31019;43.780;25.948;2023-02-22T11:39:40;100908.91;;;18.97;64.54
45275;BME280;31019;43.780;25.948;2023-02-22T11:42:20;100902.75;;;19.34;66.30
45275;BME280;31019;43.780;25.948;2023-02-22T11:44:48;100901.03;;;20.23;61.48
45275;BME280;31019;43.780;25.948;2023-02-22T11:47:17;100911.38;;;21.23;60.09
45275;BME280;31019;43.780;25.948;2023-02-22T11:49:44;100910.94;;;20.02;61.01
45275;BME280;31019;43.780;25.948;2023-02-22T11:52:19;100907.22;;;21.77;59.85
45275;BME280;31019;43.780;25.948;2023-02-22T11:54:59;100903.81;;;20.53;61.08
45275;BME280;31019;43.780;25.948;2023-02-22T11:57:40;100908.13;;;21.26;62.84
45275;BME280;31019;43.780;25.948;2023-02-22T12:00:19;100901.28;;;22.74;55.90
45275;BME280;31019;43.780;25.948;2023-02-22T12:03:15;100894.41;;;23.93;54.80
45275;BME280;31019;43.780;25.948;2023-02-22T12:06:00;100902.00;;;21.95;56.68
45275;BME280;31019;43.780;25.948;2023-02-22T12:08:38;100905.41;;;21.21;58.64
45275;BME280;31019;43.780;25.948;2023-02-22T12:11:13;100905.56;;;21.86;55.11
45275;BME280;31019;43.780;25.948;2023-02-22T12:14:00;100896.81;;;23.22;56.50
45275;BME280;31019;43.780;25.948;2023-02-22T12:16:40;100892.16;;;23.28;50.38
45275;BME280;31019;43.780;25.948;2023-02-22T12:19:18;100887.59;;;23.95;50.02
45275;BME280;31019;43.780;25.948;2023-02-22T12:21:53;100894.50;;;23.11;52.18
45275;BME280;31019;43.780;25.948;2023-02-22T12:24:22;100893.03;;;20.89;51.45
45275;BME280;31019;43.780;25.948;2023-02-22T12:26:55;100889.66;;;23.61;48.82
45275;BME280;31019;43.780;25.948;2023-02-22T12:29:26;100884.09;;;24.14;48.98
45275;BME280;31019;43.780;25.948;2023-02-22T12:31:58;100889.13;;;21.72;52.36
45275;BME280;31019;43.780;25.948;2023-02-22T12:34:33;100881.91;;;24.16;49.05
45275;BME280;31019;43.780;25.948;2023-02-22T12:37:09;100875.41;;;22.97;49.94
45275;BME280;31019;43.780;25.948;2023-02-22T12:39:45;100886.25;;;23.74;49.04
45275;BME280;31019;43.780;25.948;2023-02-22T12:42:17;100877.47;;;24.44;47.50
45275;BME280;31019;43.780;25.948;2023-02-22T12:44:52;100879.13;;;24.40;47.24
45275;BME280;31019;43.780;25.948;2023-02-22T12:47:27;100872.31;;;23.57;46.41
45275;BME280;31019;43.780;25.948;2023-02-22T12:50:00;100880.53;;;22.93;49.65
45275;BME280;31019;43.780;25.948;2023-02-22T12:52:40;100883.16;;;24.94;45.85
45275;BME280;31019;43.780;25.948;2023-02-22T12:55:13;100877.41;;;23.87;45.90
45275;BME280;31019;43.780;25.948;2023-02-22T12:57:48;100881.34;;;23.28;47.74
45275;BME280;31019;43.780;25.948;2023-02-22T13:00:21;100884.06;;;23.52;47.88
45275;BME280;31019;43.780;25.948;2023-02-22T13:02:57;100874.44;;;22.48;50.61